Time;durP1;ratioP1;P1;durP2;ratioP2;P2;SDS_P1;SDS_P2;PMS_P1;PMS_P2;Temp;Humidity;BMP_temperature;BMP_pressure;BME280_temperature;BME280_humidity;BME280_pressure;Samples;Min_cycle;Max_cycle;Signal;HPM_P1;HPM_P2
2024/01/25 00:00:54;;;;;;;9.45;2.25;;;7.90;99.90;;;;;;4883488;29;20056;-79
2024/01/25 00:03:21;;;;;;;14.23;1.83;;;7.80;99.90;;;;;;4899992;29;20052;-79
2024/01/25 00:05:48;;;;;;;14.60;2.28;;;7.70;99.90;;;;;;4883434;29;20116;-79
2024/01/25 00:08:16;;;;;;;11.02;2.05;;;7.70;99.90;;;;;;4883048;29;20442;-80
2024/01/25 00:10:43;;;;;;;7.70;1.55;;;7.60;99.90;;;;;;4899903;29;20378;-79
2024/01/25 00:13:10;;;;;;;6.93;1.30;;;7.50;99.90;;;;;;4898692;29;20048;-79
2024/01/25 00:15:37;;;;;;;11.25;2.13;;;7.50;99.90;;;;;;4883203;29;20136;-79
2024/01/25 00:18:04;;;;;;;7.57;1.60;;;7.40;99.90;;;;;;4898666;29;20083;-79
2024/01/25 00:20:31;;;;;;;5.78;1.50;;;7.40;99.90;;;;;;4900030;29;20468;-79
2024/01/25 00:22:59;;;;;;;8.15;1.40;;;7.40;99.90;;;;;;4883072;29;20064;-79
2024/01/25 00:25:26;;;;;;;13.55;2.13;;;7.30;99.90;;;;;;4899781;29;20041;-79
2024/01/25 00:27:53;;;;;;;11.07;1.63;;;7.30;99.90;;;;;;4893747;29;20463;-79
2024/01/25 00:30:20;;;;;;;11.35;1.67;;;7.30;99.90;;;;;;4885939;29;20041;-80
2024/01/25 00:32:48;;;;;;;8.20;1.60;;;7.20;99.90;;;;;;4883141;29;20454;-80
2024/01/25 00:35:15;;;;;;;10.23;1.50;;;7.20;99.90;;;;;;4879780;29;20105;-80
2024/01/25 00:37:43;;;;;;;13.75;2.08;;;7.20;99.90;;;;;;4879779;29;20060;-80
2024/01/25 00:40:13;;;;;;;13.15;2.67;;;7.10;99.90;;;;;;4864246;29;20076;-80
2024/01/25 00:42:48;;;;;;;12.20;1.75;;;7.10;99.90;;;;;;4882636;29;20040;-80
2024/01/25 00:45:16;;;;;;;8.18;1.73;;;7.10;99.90;;;;;;4867880;29;20060;-80
2024/01/25 00:47:43;;;;;;;7.82;1.20;;;7.00;99.90;;;;;;4882651;29;20059;-80
2024/01/25 00:50:10;;;;;;;9.75;2.42;;;7.00;99.90;;;;;;4879120;29;20047;-80
2024/01/25 00:52:38;;;;;;;6.13;1.52;;;7.00;99.90;;;;;;4898126;29;20087;-80
2024/01/25 00:55:06;;;;;;;7.28;1.05;;;6.90;99.90;;;;;;4867185;29;20056;-80
2024/01/25 00:57:33;;;;;;;6.93;0.95;;;6.90;99.90;;;;;;4899052;29;20112;-80
2024/01/25 01:00:00;;;;;;;5.65;1.05;;;6.80;99.90;;;;;;4879294;29;20045;-80
2024/01/25 01:02:30;;;;;;;4.53;0.70;;;6.80;99.90;;;;;;4897007;29;20041;-80
2024/01/25 01:04:58;;;;;;;12.25;1.58;;;6.80;99.90;;;;;;4897948;29;20040;-80
2024/01/25 01:07:26;;;;;;;8.38;1.08;;;6.70;99.90;;;;;;4882513;29;20071;-80
2024/01/25 01:09:53;;;;;;;5.13;1.08;;;6.70;99.90;;;;;;4882311;29;20049;-80
2024/01/25 01:12:20;;;;;;;5.32;1.58;;;6.70;99.90;;;;;;4899014;29;20064;-80
2024/01/25 01:14:47;;;;;;;8.70;1.35;;;6.70;99.90;;;;;;4882120;29;20414;-80
2024/01/25 01:17:15;;;;;;;7.45;0.82;;;6.60;99.90;;;;;;4897680;29;20055;-80
2024/01/25 01:19:42;;;;;;;6.90;1.00;;;6.60;99.90;;;;;;4898306;29;20454;-80
2024/01/25 01:22:10;;;;;;;4.13;0.40;;;6.50;99.90;;;;;;4897732;29;20048;-80
2024/01/25 01:24:37;;;;;;;6.22;0.85;;;6.50;99.90;;;;;;4881867;29;20052;-80
2024/01/25 01:27:04;;;;;;;5.13;0.93;;;6.40;99.90;;;;;;4897483;29;20127;-80
2024/01/25 01:29:31;;;;;;;1.40;0.40;;;6.40;99.90;;;;;;4898639;29;20040;-80
2024/01/25 01:31:58;;;;;;;4.20;0.60;;;6.30;99.90;;;;;;4897359;29;20482;-81
2024/01/25 01:34:25;;;;;;;2.85;0.85;;;6.30;99.90;;;;;;4898388;29;20052;-80
2024/01/25 01:36:53;;;;;;;4.07;0.98;;;6.30;99.90;;;;;;4881555;29;20072;-80
2024/01/25 01:39:20;;;;;;;5.72;1.00;;;6.20;99.90;;;;;;4896792;29;20136;-80
2024/01/25 01:41:51;;;;;;;4.10;1.13;;;6.20;99.90;;;;;;4898325;29;20052;-80
2024/01/25 01:44:18;;;;;;;3.72;0.82;;;6.20;99.90;;;;;;4898247;29;20055;-80
2024/01/25 01:46:45;;;;;;;3.45;0.60;;;6.20;99.90;;;;;;4881720;29;20044;-80
2024/01/25 01:49:14;;;;;;;4.82;0.50;;;6.10;99.90;;;;;;4881666;29;20479;-81
2024/01/25 01:51:43;;;;;;;4.63;0.50;;;6.10;99.90;;;;;;4897086;29;20457;-80
2024/01/25 01:54:11;;;;;;;7.95;0.68;;;6.00;99.90;;;;;;4898260;29;20135;-79
2024/01/25 01:56:41;;;;;;;7.25;1.42;;;5.90;99.90;;;;;;4881311;29;20088;-79
2024/01/25 01:59:13;;;;;;;3.85;0.50;;;5.90;99.90;;;;;;4896907;29;20052;-80
2024/01/25 02:01:40;;;;;;;3.35;0.68;;;5.90;99.90;;;;;;4896726;29;20417;-81
2024/01/25 02:04:07;;;;;;;3.42;0.45;;;5.80;99.90;;;;;;4896534;29;20040;-79
2024/01/25 02:06:34;;;;;;;3.25;0.55;;;5.70;99.90;;;;;;4897909;29;20047;-80
2024/01/25 02:09:02;;;;;;;2.70;0.40;;;5.70;99.90;;;;;;4878192;29;20045;-80
2024/01/25 02:11:29;;;;;;;2.90;0.38;;;5.70;99.90;;;;;;4883736;29;20736;-80
2024/01/25 02:13:56;;;;;;;4.80;0.55;;;5.60;99.90;;;;;;4879593;29;20553;-81
2024/01/25 02:16:24;;;;;;;2.42;0.40;;;5.60;99.90;;;;;;4898047;29;20072;-79
2024/01/25 02:18:54;;;;;;;3.10;0.40;;;5.60;99.90;;;;;;4896578;29;20049;-80
2024/01/25 02:21:21;;;;;;;2.47;0.60;;;5.60;99.90;;;;;;4863178;29;20059;-80
2024/01/25 02:23:49;;;;;;;4.00;0.85;;;5.50;99.90;;;;;;4878006;29;20484;-79
2024/01/25 02:26:17;;;;;;;2.75;0.40;;;5.50;99.90;;;;;;4878023;29;20053;-79
2024/01/25 02:28:44;;;;;;;4.85;0.70;;;5.50;99.90;;;;;;4884653;29;20139;-79
2024/01/25 02:31:11;;;;;;;4.45;0.77;;;5.40;99.90;;;;;;4882296;29;20040;-80
2024/01/25 02:33:38;;;;;;;7.18;0.70;;;5.40;99.90;;;;;;4887352;29;20056;-80
2024/01/25 02:36:05;;;;;;;6.22;0.85;;;5.40;99.90;;;;;;4868523;29;20044;-80
2024/01/25 02:38:32;;;;;;;6.00;0.50;;;5.50;99.90;;;;;;4902252;29;20056;-81
2024/01/25 02:40:59;;;;;;;5.47;0.70;;;5.50;99.90;;;;;;4902886;29;20052;-81
2024/01/25 02:43:26;;;;;;;7.05;1.00;;;5.50;99.90;;;;;;4887130;29;20041;-81
2024/01/25 02:45:54;;;;;;;5.18;1.15;;;5.50;99.90;;;;;;4902629;29;20049;-81
2024/01/25 02:48:21;;;;;;;5.75;1.10;;;5.50;99.90;;;;;;4896544;29;20477;-81
2024/01/25 02:50:48;;;;;;;7.82;1.15;;;5.50;99.90;;;;;;4883953;29;20077;-80
2024/01/25 02:53:15;;;;;;;5.18;0.60;;;5.50;99.90;;;;;;4887351;29;20049;-80
2024/01/25 02:55:43;;;;;;;3.92;0.65;;;5.50;99.90;;;;;;4902784;29;20055;-81
2024/01/25 02:58:09;;;;;;;6.78;0.70;;;5.50;99.90;;;;;;4902639;29;20075;-81
2024/01/25 03:00:37;;;;;;;5.32;0.80;;;5.40;99.90;;;;;;4887162;29;20049;-81
2024/01/25 03:03:04;;;;;;;10.50;1.48;;;5.40;99.90;;;;;;4902666;29;20100;-80
2024/01/25 03:05:31;;;;;;;8.70;1.00;;;5.40;99.90;;;;;;4885962;29;20391;-80
2024/01/25 03:07:58;;;;;;;5.18;0.80;;;5.40;99.90;;;;;;4887143;29;20053;-80
2024/01/25 03:10:25;;;;;;;5.57;1.33;;;5.40;99.90;;;;;;4883961;29;20041;-80
2024/01/25 03:12:55;;;;;;;7.22;1.10;;;5.40;99.90;;;;;;4890247;29;20091;-81
2024/01/25 03:15:22;;;;;;;4.20;0.70;;;5.40;99.90;;;;;;4886936;29;20502;-80
2024/01/25 03:17:49;;;;;;;7.28;0.80;;;5.40;99.90;;;;;;4902604;29;20049;-81
2024/01/25 03:20:16;;;;;;;10.55;1.00;;;5.30;99.90;;;;;;4903685;29;20048;-80
2024/01/25 03:22:44;;;;;;;4.65;0.70;;;5.30;99.90;;;;;;4903657;29;20041;-80
2024/01/25 03:25:11;;;;;;;6.75;0.77;;;5.30;99.90;;;;;;4902450;29;20112;-80
2024/01/25 03:27:38;;;;;;;4.53;0.52;;;5.30;99.90;;;;;;4886873;29;20049;-81
2024/01/25 03:30:06;;;;;;;4.50;0.77;;;5.30;99.90;;;;;;4856383;29;20043;-81
2024/01/25 03:32:35;;;;;;;6.78;1.70;;;5.20;99.90;;;;;;4903660;29;20041;-80
2024/01/25 03:35:02;;;;;;;5.70;0.65;;;5.30;99.90;;;;;;4902734;29;20055;-80
2024/01/25 03:37:29;;;;;;;8.07;1.73;;;5.20;99.90;;;;;;4902193;29;20058;-80
2024/01/25 03:39:56;;;;;;;8.82;1.00;;;5.20;99.90;;;;;;4884994;29;20076;-80
2024/01/25 03:42:24;;;;;;;6.05;0.82;;;5.20;99.90;;;;;;4901938;29;20493;-80
2024/01/25 03:44:52;;;;;;;7.93;1.00;;;5.10;99.90;;;;;;4898688;29;20485;-80
2024/01/25 03:47:19;;;;;;;4.20;0.73;;;5.10;99.90;;;;;;4899337;29;20036;-80
2024/01/25 03:49:46;;;;;;;5.22;0.70;;;5.10;99.90;;;;;;4900450;29;20045;-80
2024/01/25 03:52:13;;;;;;;3.42;1.08;;;5.10;99.90;;;;;;4900226;29;20493;-80
2024/01/25 03:54:40;;;;;;;3.80;0.60;;;5.00;99.90;;;;;;4883689;29;20053;-80
2024/01/25 03:57:07;;;;;;;4.72;0.50;;;5.00;99.90;;;;;;4883533;29;20057;-80
2024/01/25 03:59:34;;;;;;;4.68;0.85;;;4.90;99.90;;;;;;4864984;29;20052;-80
2024/01/25 04:02:01;;;;;;;6.25;0.80;;;4.90;99.90;;;;;;4879335;29;20056;-79
2024/01/25 04:04:28;;;;;;;3.30;0.55;;;4.90;99.90;;;;;;4898834;29;20083;-80
2024/01/25 04:06:56;;;;;;;4.28;0.93;;;4.80;99.90;;;;;;4898875;29;20437;-79
2024/01/25 04:09:23;;;;;;;3.53;0.63;;;4.80;99.90;;;;;;4883346;29;20131;-80
2024/01/25 04:11:50;;;;;;;6.70;1.10;;;4.80;99.90;;;;;;4900120;29;20048;-80
2024/01/25 04:14:17;;;;;;;7.07;1.15;;;4.80;99.90;;;;;;4897424;29;20044;-80
2024/01/25 04:16:46;;;;;;;7.85;1.20;;;4.80;99.90;;;;;;4899882;29;20048;-80
2024/01/25 04:19:13;;;;;;;6.00;1.00;;;4.80;99.90;;;;;;4896055;29;20052;-80
2024/01/25 04:21:41;;;;;;;6.93;1.00;;;4.90;99.90;;;;;;4880202;29;20052;-80
2024/01/25 04:24:07;;;;;;;8.15;1.00;;;4.80;99.90;;;;;;4894355;29;20040;-80
2024/01/25 04:26:34;;;;;;;9.02;1.30;;;4.80;99.90;;;;;;4883159;29;20048;-80
2024/01/25 04:29:01;;;;;;;7.82;0.90;;;4.80;99.90;;;;;;4883091;29;20056;-81
2024/01/25 04:31:28;;;;;;;8.93;1.10;;;4.80;99.90;;;;;;4881737;29;20097;-80
2024/01/25 04:33:55;;;;;;;8.15;1.20;;;4.80;99.90;;;;;;4879856;29;20053;-81
2024/01/25 04:36:23;;;;;;;7.57;2.13;;;4.80;99.90;;;;;;4893139;29;20156;-80
2024/01/25 04:38:50;;;;;;;6.53;1.20;;;4.80;99.90;;;;;;4898412;29;20107;-80
2024/01/25 04:41:17;;;;;;;8.73;2.10;;;4.80;99.90;;;;;;4899499;29;20044;-79
2024/01/25 04:43:44;;;;;;;14.13;1.77;;;4.70;99.90;;;;;;4879514;29;20486;-80
2024/01/25 04:46:11;;;;;;;10.32;1.48;;;4.80;99.90;;;;;;4874495;29;20048;-80
2024/01/25 04:48:39;;;;;;;10.02;2.30;;;4.70;99.90;;;;;;4879589;29;20148;-80
2024/01/25 04:51:07;;;;;;;8.13;1.77;;;4.70;99.90;;;;;;4888523;29;20053;-80
2024/01/25 04:53:34;;;;;;;7.57;1.38;;;4.70;99.90;;;;;;4898246;29;20041;-80
2024/01/25 04:56:01;;;;;;;6.85;1.23;;;4.70;99.90;;;;;;4878149;29;20494;-80
2024/01/25 04:58:28;;;;;;;12.30;2.83;;;4.70;99.90;;;;;;4877399;29;20055;-81
2024/01/25 05:00:55;;;;;;;10.30;1.98;;;4.70;99.90;;;;;;4897999;29;20116;-81
2024/01/25 05:03:22;;;;;;;12.77;2.08;;;4.70;99.90;;;;;;4863932;29;20041;-81
2024/01/25 05:05:49;;;;;;;11.10;1.88;;;4.70;99.90;;;;;;4881312;29;20528;-81
2024/01/25 05:08:16;;;;;;;8.23;1.35;;;4.70;99.90;;;;;;4879355;29;20072;-80
2024/01/25 05:10:44;;;;;;;6.38;1.50;;;4.70;99.90;;;;;;4871701;29;20049;-81
2024/01/25 05:13:12;;;;;;;8.88;1.45;;;4.70;99.90;;;;;;4897773;29;20128;-80
2024/01/25 05:15:39;;;;;;;9.18;1.27;;;4.70;99.90;;;;;;4882369;29;20064;-81
2024/01/25 05:18:06;;;;;;;5.20;1.25;;;4.70;99.90;;;;;;4897808;29;20052;-80
2024/01/25 05:20:36;;;;;;;6.43;1.17;;;4.60;99.90;;;;;;4897590;29;20056;-80
2024/01/25 05:23:04;;;;;;;10.90;1.17;;;4.60;99.90;;;;;;4867112;29;20152;-81
2024/01/25 05:25:32;;;;;;;7.80;1.48;;;4.70;99.90;;;;;;4882019;29;20055;-80
2024/01/25 05:27:59;;;;;;;7.28;0.80;;;4.60;99.90;;;;;;4897478;29;20057;-80
2024/01/25 05:30:27;;;;;;;5.10;0.85;;;4.60;99.90;;;;;;4897511;29;20049;-80
2024/01/25 05:32:54;;;;;;;3.88;0.77;;;4.60;99.90;;;;;;4897370;29;20045;-81
2024/01/25 05:35:23;;;;;;;5.97;0.60;;;4.50;99.90;;;;;;4879975;29;20049;-81
2024/01/25 05:37:51;;;;;;;6.97;0.90;;;4.40;99.90;;;;;;4890178;29;20584;-81
2024/01/25 05:40:20;;;;;;;3.38;0.85;;;4.40;99.90;;;;;;4898273;29;20076;-81
2024/01/25 05:42:48;;;;;;;6.80;0.60;;;4.30;99.90;;;;;;4897106;29;20199;-81
2024/01/25 05:45:15;;;;;;;3.97;0.50;;;4.30;99.90;;;;;;4881456;29;20409;-81
2024/01/25 05:47:42;;;;;;;2.10;0.63;;;4.30;99.90;;;;;;4897083;29;20096;-80
2024/01/25 05:50:09;;;;;;;2.65;0.40;;;4.20;99.90;;;;;;4881585;29;20442;-81
2024/01/25 05:52:37;;;;;;;4.57;0.70;;;4.20;99.90;;;;;;4898402;29;20063;-80
2024/01/25 05:55:08;;;;;;;5.32;0.60;;;4.20;99.90;;;;;;4897365;29;20096;-80
2024/01/25 05:57:36;;;;;;;5.78;0.70;;;4.10;99.90;;;;;;4896962;29;20409;-81
2024/01/25 06:00:05;;;;;;;4.47;0.80;;;4.10;99.90;;;;;;4891955;29;20549;-81
2024/01/25 06:02:35;;;;;;;2.83;0.60;;;4.10;99.90;;;;;;4884113;29;20461;-81
2024/01/25 06:05:02;;;;;;;7.82;1.02;;;4.00;99.90;;;;;;4881292;29;20052;-80
2024/01/25 06:07:30;;;;;;;3.30;0.50;;;4.00;99.90;;;;;;4879209;29;20063;-80
2024/01/25 06:09:57;;;;;;;2.50;0.63;;;4.00;99.90;;;;;;4873010;29;20477;-80
2024/01/25 06:12:24;;;;;;;3.25;0.50;;;4.00;99.90;;;;;;4897034;29;20049;-80
2024/01/25 06:14:52;;;;;;;7.03;0.98;;;4.00;99.90;;;;;;4896797;29;20120;-81
2024/01/25 06:17:19;;;;;;;3.67;0.55;;;4.00;99.90;;;;;;4896868;29;20049;-80
2024/01/25 06:19:46;;;;;;;6.53;0.52;;;4.00;99.90;;;;;;4897914;29;20409;-79
2024/01/25 06:22:13;;;;;;;3.25;0.50;;;4.00;99.90;;;;;;4896705;29;20048;-79
2024/01/25 06:24:40;;;;;;;3.17;0.50;;;3.90;99.90;;;;;;4896423;29;20055;-80
2024/01/25 06:27:08;;;;;;;2.67;0.70;;;4.00;99.90;;;;;;4896465;29;20122;-79
2024/01/25 06:29:35;;;;;;;5.28;0.93;;;4.00;99.90;;;;;;4896324;29;20466;-79
2024/01/25 06:32:02;;;;;;;4.78;0.70;;;4.00;99.90;;;;;;4865622;29;20048;-80
2024/01/25 06:34:36;;;;;;;4.43;0.88;;;4.00;99.90;;;;;;4881965;29;20139;-79
2024/01/25 06:37:04;;;;;;;4.50;1.38;;;4.00;99.90;;;;;;4896245;29;20061;-80
2024/01/25 06:39:34;;;;;;;4.45;0.85;;;4.00;99.90;;;;;;4881225;29;20048;-80
2024/01/25 06:42:01;;;;;;;2.05;0.60;;;3.90;99.90;;;;;;4896182;29;20053;-80
2024/01/25 06:44:28;;;;;;;4.53;0.68;;;3.90;99.90;;;;;;4880906;29;20391;-80
2024/01/25 06:46:56;;;;;;;5.50;1.25;;;3.90;99.90;;;;;;4896348;29;20489;-80
2024/01/25 06:49:23;;;;;;;4.50;0.80;;;3.90;99.90;;;;;;4896495;29;20047;-80
2024/01/25 06:51:50;;;;;;;6.35;0.85;;;3.90;99.90;;;;;;4896357;29;20048;-80
2024/01/25 06:54:17;;;;;;;7.07;1.08;;;4.00;99.90;;;;;;4881012;29;20442;-80
2024/01/25 06:56:44;;;;;;;3.97;0.90;;;4.00;99.90;;;;;;4877575;29;20061;-80
2024/01/25 06:59:11;;;;;;;6.75;1.27;;;4.00;99.90;;;;;;4865498;29;20056;-80
2024/01/25 07:01:38;;;;;;;5.30;0.90;;;4.00;99.90;;;;;;4880896;29;20052;-80
2024/01/25 07:04:06;;;;;;;9.75;1.52;;;4.00;99.90;;;;;;4895921;29;20048;-80
2024/01/25 07:06:37;;;;;;;6.13;0.93;;;4.00;99.90;;;;;;4881364;29;20060;-80
2024/01/25 07:09:04;;;;;;;6.80;2.03;;;4.00;99.90;;;;;;4880780;29;20060;-80
2024/01/25 07:11:31;;;;;;;5.47;1.20;;;4.10;99.90;;;;;;4877579;29;20828;-80
2024/01/25 07:13:58;;;;;;;8.82;1.33;;;4.10;99.90;;;;;;4871067;29;20048;-82
2024/01/25 07:16:25;;;;;;;8.63;1.40;;;4.10;99.90;;;;;;4896152;29;20053;-80
2024/01/25 07:18:52;;;;;;;4.53;1.27;;;4.10;99.90;;;;;;4897638;29;20061;-80
2024/01/25 07:21:22;;;;;;;5.05;0.93;;;4.10;99.90;;;;;;4884502;29;20053;-81
2024/01/25 07:23:49;;;;;;;3.83;0.80;;;4.10;99.90;;;;;;4884149;29;20048;-80
2024/01/25 07:26:18;;;;;;;6.55;1.30;;;4.10;99.90;;;;;;4899964;29;20072;-80
2024/01/25 07:28:46;;;;;;;4.70;0.95;;;4.10;99.90;;;;;;4884050;29;20051;-80
2024/01/25 07:31:13;;;;;;;3.83;1.00;;;4.20;99.90;;;;;;4899689;29;20558;-81
2024/01/25 07:33:40;;;;;;;4.28;1.02;;;4.20;99.90;;;;;;4887594;29;20127;-80
2024/01/25 07:36:08;;;;;;;6.05;1.02;;;4.20;99.90;;;;;;4899598;29;20442;-81
2024/01/25 07:38:35;;;;;;;7.28;1.13;;;4.20;99.90;;;;;;4899223;29;20052;-81
2024/01/25 07:41:02;;;;;;;5.35;0.98;;;4.20;99.90;;;;;;4900635;29;20051;-81
2024/01/25 07:43:29;;;;;;;7.63;1.27;;;4.20;99.90;;;;;;4884060;29;20045;-81
2024/01/25 07:45:56;;;;;;;5.57;0.93;;;4.20;99.90;;;;;;4899132;29;20416;-81
2024/01/25 07:48:23;;;;;;;8.82;0.98;;;4.20;99.90;;;;;;4883965;29;20045;-80
2024/01/25 07:50:50;;;;;;;6.70;1.60;;;4.30;99.90;;;;;;4899112;29;20143;-80
2024/01/25 07:53:18;;;;;;;6.38;1.23;;;4.30;99.90;;;;;;4899060;29;20040;-80
2024/01/25 07:55:45;;;;;;;10.50;1.58;;;4.30;99.90;;;;;;4899133;29;20053;-81
2024/01/25 07:58:16;;;;;;;10.18;1.60;;;4.30;99.90;;;;;;4900234;29;20057;-81
2024/01/25 08:00:45;;;;;;;7.43;1.88;;;4.40;99.90;;;;;;4899170;29;20052;-80
2024/01/25 08:03:12;;;;;;;8.52;2.28;;;4.50;99.90;;;;;;4883680;29;20048;-81
2024/01/25 08:05:39;;;;;;;7.65;1.83;;;4.50;99.90;;;;;;4880187;29;20455;-80
2024/01/25 08:08:16;;;;;;;4.13;1.02;;;4.50;99.90;;;;;;4876065;29;20409;-80
2024/01/25 08:10:45;;;;;;;3.10;0.77;;;4.50;99.90;;;;;;4883621;29;20040;-80
2024/01/25 08:13:13;;;;;;;7.10;0.98;;;4.50;99.90;;;;;;4900070;29;20789;-81
2024/01/25 08:15:40;;;;;;;6.28;1.25;;;4.50;99.90;;;;;;4898793;29;20052;-79
2024/01/25 08:18:07;;;;;;;7.03;0.98;;;4.50;99.90;;;;;;4898892;29;20052;-81
2024/01/25 08:20:37;;;;;;;4.22;0.90;;;4.50;99.90;;;;;;4898589;29;20053;-80
2024/01/25 08:23:04;;;;;;;5.20;1.00;;;4.50;99.90;;;;;;4898394;29;20117;-78
2024/01/25 08:25:31;;;;;;;4.30;0.90;;;4.50;99.90;;;;;;4898310;29;20454;-78
2024/01/25 08:27:59;;;;;;;2.92;0.50;;;4.60;99.90;;;;;;4882906;29;20048;-79
2024/01/25 08:30:26;;;;;;;4.88;0.63;;;4.60;99.90;;;;;;4882719;29;20084;-78
2024/01/25 08:32:53;;;;;;;4.13;0.60;;;4.60;99.90;;;;;;4898342;29;20047;-78
2024/01/25 08:35:20;;;;;;;2.83;0.65;;;4.60;99.90;;;;;;4898402;29;20394;-78
2024/01/25 08:37:49;;;;;;;2.00;0.63;;;4.60;99.90;;;;;;4882867;29;20076;-78
2024/01/25 08:40:16;;;;;;;4.40;0.52;;;4.60;99.90;;;;;;4898279;29;20044;-78
2024/01/25 08:42:43;;;;;;;5.68;0.77;;;4.70;99.90;;;;;;4898287;29;20055;-78
2024/01/25 08:45:10;;;;;;;5.78;0.90;;;4.70;99.90;;;;;;4882475;29;20055;-79
2024/01/25 08:47:44;;;;;;;3.60;0.80;;;4.70;99.90;;;;;;4883024;29;20037;-78
2024/01/25 08:50:11;;;;;;;12.45;1.40;;;4.70;99.90;;;;;;4899349;29;20450;-78
2024/01/25 08:52:40;;;;;;;9.32;1.25;;;4.80;99.90;;;;;;4899080;29;20545;-78
2024/01/25 08:55:09;;;;;;;5.28;1.25;;;4.80;99.90;;;;;;4863961;29;20064;-79
2024/01/25 08:57:37;;;;;;;3.20;0.90;;;4.80;99.90;;;;;;4885858;29;20056;-78
2024/01/25 09:00:10;;;;;;;5.45;1.05;;;4.90;99.90;;;;;;4863910;29;20151;-78
2024/01/25 09:02:38;;;;;;;3.58;0.80;;;5.00;99.90;;;;;;4870583;29;20048;-78
2024/01/25 09:05:05;;;;;;;6.40;1.45;;;5.00;99.90;;;;;;4897709;29;20056;-78
2024/01/25 09:07:36;;;;;;;6.07;1.40;;;5.10;99.90;;;;;;4897895;29;20129;-79
2024/01/25 09:10:04;;;;;;;4.40;1.13;;;5.10;99.90;;;;;;4897898;29;20052;-78
2024/01/25 09:12:31;;;;;;;5.25;1.30;;;5.20;99.90;;;;;;4898983;29;20040;-78
2024/01/25 09:15:00;;;;;;;14.10;1.85;;;5.20;99.90;;;;;;4882422;29;20048;-78
2024/01/25 09:17:27;;;;;;;14.10;2.25;;;5.30;99.90;;;;;;4866988;29;20083;-78
2024/01/25 09:19:54;;;;;;;10.23;2.08;;;5.30;99.90;;;;;;4898897;29;20040;-78
2024/01/25 09:22:22;;;;;;;8.57;1.65;;;5.40;99.90;;;;;;4898743;29;20090;-79
2024/01/25 09:24:49;;;;;;;7.55;1.90;;;5.40;99.90;;;;;;4897592;29;20446;-78
2024/01/25 09:27:16;;;;;;;10.02;2.85;;;5.40;99.90;;;;;;4897462;29;20489;-79
2024/01/25 09:29:43;;;;;;;9.88;2.75;;;5.50;99.90;;;;;;4881951;29;20044;-78
2024/01/25 09:32:10;;;;;;;5.82;1.55;;;5.50;99.90;;;;;;4897487;29;20063;-77
2024/01/25 09:34:38;;;;;;;12.88;2.70;;;5.60;99.90;;;;;;4866599;29;20482;-78
2024/01/25 09:37:07;;;;;;;10.85;2.58;;;5.60;99.90;;;;;;4894138;29;20076;-78
2024/01/25 09:39:35;;;;;;;10.35;3.90;;;5.70;99.90;;;;;;4890189;29;20420;-77
2024/01/25 09:42:04;;;;;;;13.93;3.92;;;5.70;99.90;;;;;;4896556;29;20055;-78
2024/01/25 09:44:32;;;;;;;9.88;2.45;;;5.70;99.90;;;;;;4896839;29;20465;-77
2024/01/25 09:47:05;;;;;;;11.40;3.08;;;5.80;99.90;;;;;;4881404;29;20106;-78
2024/01/25 09:49:33;;;;;;;8.07;3.03;;;5.80;99.90;;;;;;4898242;29;20041;-78
2024/01/25 09:52:05;;;;;;;9.82;2.83;;;5.90;99.90;;;;;;4896902;29;20067;-78
2024/01/25 09:54:36;;;;;;;10.63;2.53;;;6.00;99.90;;;;;;4898232;29;20040;-78
2024/01/25 09:57:14;;;;;;;10.23;2.40;;;6.00;99.90;;;;;;4897981;29;20060;-78
2024/01/25 09:59:42;;;;;;;15.10;3.20;;;6.00;99.90;;;;;;4898078;29;20037;-78
2024/01/25 10:02:10;;;;;;;7.43;2.63;;;6.10;99.90;;;;;;4893617;29;20453;-78
2024/01/25 10:04:38;;;;;;;8.35;2.20;;;6.20;99.90;;;;;;4896914;29;20056;-80
2024/01/25 10:07:08;;;;;;;6.10;1.33;;;6.30;99.90;;;;;;4881402;29;20044;-79
2024/01/25 10:09:41;;;;;;;10.05;2.88;;;6.40;99.90;;;;;;4879371;29;20045;-80
2024/01/25 10:12:08;;;;;;;;;;;6.50;99.90;;;;;;4892283;29;20064;-83
2024/01/25 10:14:44;;;;;;;10.52;2.70;;;6.50;99.90;;;;;;4882299;29;19923;-84
2024/01/25 10:17:11;;;;;;;14.68;3.42;;;6.50;99.90;;;;;;4878336;29;20116;-83
2024/01/25 10:19:43;;;;;;;9.45;2.55;;;6.50;99.90;;;;;;4863700;29;20092;-83
2024/01/25 10:22:12;;;;;;;16.65;3.92;;;6.60;99.90;;;;;;4881715;29;20502;-83
2024/01/25 10:24:42;;;;;;;13.57;4.10;;;6.60;99.90;;;;;;4863145;29;20524;-81
2024/01/25 10:27:10;;;;;;;11.60;3.80;;;6.60;99.90;;;;;;4870090;29;20055;-81
2024/01/25 10:29:37;;;;;;;15.90;3.90;;;6.60;99.90;;;;;;4896253;29;20577;-81
2024/01/25 10:32:06;;;;;;;12.40;3.05;;;6.60;99.90;;;;;;4896474;29;20057;-82
2024/01/25 10:34:36;;;;;;;8.77;2.55;;;6.60;99.90;;;;;;4862150;29;20128;-80
2024/01/25 10:37:07;;;;;;;10.88;3.10;;;6.70;99.90;;;;;;4878957;29;20041;-82
2024/01/25 10:39:35;;;;;;;11.50;2.47;;;6.70;99.90;;;;;;4855993;29;20056;-82
2024/01/25 10:42:02;;;;;;;10.20;3.30;;;6.70;99.90;;;;;;4880993;29;20048;-84
2024/01/25 10:44:29;;;;;;;15.00;2.95;;;6.80;99.90;;;;;;4865813;29;20123;-84
2024/01/25 10:46:57;;;;;;;11.68;3.15;;;6.80;99.90;;;;;;4866151;29;20037;-84
2024/01/25 10:49:25;;;;;;;16.13;4.35;;;6.80;99.90;;;;;;4881501;29;20060;-81
2024/01/25 10:51:53;;;;;;;11.20;3.15;;;6.90;99.90;;;;;;4896407;29;20048;-81
2024/01/25 10:54:21;;;;;;;11.00;3.05;;;6.90;99.90;;;;;;4884322;29;20107;-81
2024/01/25 10:56:48;;;;;;;12.23;3.50;;;6.90;99.90;;;;;;4881424;29;20053;-81
2024/01/25 10:59:17;;;;;;;10.75;4.20;;;6.90;99.90;;;;;;4884157;29;20056;-82
2024/01/25 11:01:45;;;;;;;13.32;3.47;;;7.00;99.90;;;;;;4884504;29;20112;-82
2024/01/25 11:04:16;;;;;;;11.57;2.83;;;7.10;99.90;;;;;;4884483;29;20059;-81
2024/01/25 11:06:46;;;;;;;12.50;3.65;;;7.20;99.90;;;;;;4901046;29;20370;-77
2024/01/25 11:09:24;;;;;;;11.25;3.38;;;7.20;99.90;;;;;;4868717;29;20076;-75
2024/01/25 11:11:54;;;;;;;11.93;3.53;;;7.30;99.90;;;;;;4899641;29;20378;-75
2024/01/25 11:14:21;;;;;;;12.05;3.30;;;7.30;99.90;;;;;;4883840;29;20053;-75
2024/01/25 11:16:48;;;;;;;12.32;3.50;;;7.30;99.90;;;;;;4899240;29;20063;-75
2024/01/25 11:19:21;;;;;;;9.77;3.03;;;7.40;99.90;;;;;;4883630;29;20044;-74
2024/01/25 11:21:50;;;;;;;13.02;2.88;;;7.50;99.90;;;;;;4899520;29;20052;-75
2024/01/25 11:24:24;;;;;;;13.63;3.58;;;7.60;99.90;;;;;;4900856;29;20171;-75
2024/01/25 11:26:53;;;;;;;;;;;7.70;99.90;;;;;;4868769;29;20060;-75
2024/01/25 11:29:26;;;;;;;8.52;2.53;;;7.60;99.90;;;;;;4900674;29;20369;-76
2024/01/25 11:31:53;;;;;;;10.95;3.22;;;7.70;99.90;;;;;;4900534;29;20050;-75
2024/01/25 11:34:21;;;;;;;10.40;2.42;;;7.70;99.90;;;;;;4884076;29;20549;-75
2024/01/25 11:36:49;;;;;;;5.82;1.92;;;7.80;99.90;;;;;;4900530;29;20433;-75
2024/01/25 11:39:16;;;;;;;10.35;2.78;;;7.80;99.90;;;;;;4883638;29;20048;-75
2024/01/25 11:41:44;;;;;;;12.20;2.90;;;7.90;99.90;;;;;;4899236;29;20501;-75
2024/01/25 11:44:13;;;;;;;5.60;1.92;;;7.90;99.90;;;;;;4900327;29;20123;-77
2024/01/25 11:46:40;;;;;;;11.07;2.38;;;8.00;99.90;;;;;;4898921;29;20056;-76
2024/01/25 11:49:07;;;;;;;12.57;2.50;;;8.00;99.90;;;;;;4883964;29;20446;-76
2024/01/25 11:51:35;;;;;;;11.23;3.20;;;8.10;99.90;;;;;;4899072;29;20453;-73
2024/01/25 11:54:05;;;;;;;10.90;3.03;;;8.20;99.90;;;;;;4898926;29;20131;-73
2024/01/25 11:56:35;;;;;;;14.80;4.05;;;8.20;99.90;;;;;;4898621;29;20086;-74
2024/01/25 11:59:02;;;;;;;12.07;4.20;;;8.20;99.90;;;;;;4899882;29;20486;-75
2024/01/25 12:01:30;;;;;;;14.55;3.70;;;8.20;99.90;;;;;;4883067;29;20052;-79
2024/01/25 12:03:57;;;;;;;12.00;3.70;;;8.20;99.90;;;;;;4882622;29;20048;-77
2024/01/25 12:06:24;;;;;;;13.52;4.43;;;8.30;99.90;;;;;;4883114;29;20128;-77
2024/01/25 12:08:52;;;;;;;17.98;4.03;;;8.30;99.90;;;;;;4898689;29;20048;-76
2024/01/25 12:11:21;;;;;;;19.33;5.00;;;8.30;99.90;;;;;;4898703;29;20153;-77
2024/01/25 12:13:49;;;;;;;12.55;3.25;;;8.40;99.90;;;;;;4883613;29;20053;-77
2024/01/25 12:16:16;;;;;;;12.55;4.40;;;8.40;99.90;;;;;;4883380;29;20055;-77
2024/01/25 12:18:44;;;;;;;11.55;4.30;;;8.50;99.90;;;;;;4883081;29;20049;-75
2024/01/25 12:21:13;;;;;;;15.48;4.45;;;8.50;99.90;;;;;;4899704;29;20053;-74
2024/01/25 12:23:40;;;;;;;13.05;3.42;;;8.50;99.90;;;;;;4899412;29;20044;-74
2024/01/25 12:26:09;;;;;;;13.75;3.80;;;8.50;99.90;;;;;;4882810;29;20379;-75
2024/01/25 12:28:38;;;;;;;10.52;3.63;;;8.40;99.90;;;;;;4891033;29;20084;-75
2024/01/25 12:31:06;;;;;;;11.13;2.97;;;8.40;99.90;;;;;;4897954;29;20041;-74
2024/01/25 12:33:34;;;;;;;15.32;3.90;;;8.30;99.90;;;;;;4898088;29;20068;-74
2024/01/25 12:36:02;;;;;;;12.02;4.05;;;8.30;99.90;;;;;;4867137;29;20056;-75
2024/01/25 12:38:33;;;;;;;14.73;3.67;;;8.20;99.90;;;;;;4899279;29;20049;-74
2024/01/25 12:41:01;;;;;;;14.32;4.38;;;8.10;99.90;;;;;;4898012;29;20104;-74
2024/01/25 12:43:29;;;;;;;15.77;4.03;;;8.10;99.90;;;;;;4897837;29;20468;-74
2024/01/25 12:45:57;;;;;;;12.52;2.88;;;8.10;99.90;;;;;;4899099;29;20128;-79
2024/01/25 12:48:39;;;;;;;;;;;8.10;99.90;;;;;;4884872;29;20096;-79
2024/01/25 12:51:06;;;;;;;6.50;1.90;;;8.20;99.90;;;;;;4882465;29;19927;-79
2024/01/25 12:53:33;;;;;;;8.93;1.80;;;8.30;99.90;;;;;;4898122;29;20045;-78
2024/01/25 12:56:00;;;;;;;9.30;2.45;;;8.40;99.90;;;;;;4882487;29;20147;-81
2024/01/25 12:58:27;;;;;;;6.40;1.95;;;8.50;99.90;;;;;;4898867;29;20084;-79